Time;durP1;ratioP1;P1;durP2;ratioP2;P2;SDS_P1;SDS_P2;PMS_P1;PMS_P2;Temp;Humidity;BMP_temperature;BMP_pressure;BME280_temperature;BME280_humidity;BME280_pressure;Samples;Min_cycle;Max_cycle;Signal;HPM_P1;HPM_P2
2021/11/21 00:01:55;;;;;;;;;;;21.00;63.40;;;;;;4992336;28;1963;-66
2021/11/21 00:04:21;;;;;;;;;;;21.00;63.40;;;;;;4993597;28;1737;-66
2021/11/21 00:06:46;;;;;;;;;;;21.00;63.50;;;;;;4992324;28;1574;-66
2021/11/21 00:09:12;;;;;;;;;;;21.00;63.50;;;;;;4993280;28;1391;-65
2021/11/21 00:11:37;;;;;;;;;;;20.90;63.50;;;;;;4992042;28;1431;-67
2021/11/21 00:14:04;;;;;;;;;;;20.90;63.50;;;;;;4993370;28;1308;-65
2021/11/21 00:16:29;;;;;;;;;;;20.90;63.60;;;;;;4993480;28;1405;-64
2021/11/21 00:18:55;;;;;;;;;;;20.90;63.50;;;;;;4993082;28;1169;-67
2021/11/21 00:21:20;;;;;;;;;;;20.90;63.60;;;;;;5002590;28;1895;-66
2021/11/21 00:23:46;;;;;;;;;;;20.90;63.60;;;;;;4993422;28;1390;-65
2021/11/21 00:26:11;;;;;;;;;;;20.90;63.70;;;;;;4993593;28;1655;-65
2021/11/21 00:28:37;;;;;;;;;;;20.90;63.70;;;;;;4993376;28;1374;-65
2021/11/21 00:31:03;;;;;;;;;;;20.90;64.40;;;;;;4992144;28;1581;-66
2021/11/21 00:33:29;;;;;;;;;;;20.90;63.70;;;;;;4992473;28;1672;-65
2021/11/21 00:35:55;;;;;;;;;;;20.90;63.70;;;;;;4993049;28;1492;-65
2021/11/21 00:38:20;;;;;;;;;;;20.90;63.70;;;;;;4992739;28;1670;-65
2021/11/21 00:40:46;;;;;;;;;;;20.90;63.70;;;;;;4992269;28;1902;-65
2021/11/21 00:43:11;;;;;;;;;;;20.90;63.80;;;;;;4992760;28;1289;-65
2021/11/21 00:45:37;;;;;;;;;;;20.90;63.80;;;;;;4991663;28;1532;-66
2021/11/21 00:48:03;;;;;;;;;;;20.80;63.70;;;;;;4992674;28;1203;-65
2021/11/21 00:50:30;;;;;;;;;;;20.90;63.80;;;;;;4992583;28;1411;-66
2021/11/21 00:53:03;;;;;;;;;;;20.80;63.80;;;;;;4991939;28;1672;-66
2021/11/21 00:55:41;;;;;;;;;;;20.80;63.80;;;;;;4991650;28;1343;-66
2021/11/21 00:58:07;;;;;;;;;;;20.80;63.80;;;;;;4992758;28;1623;-66
2021/11/21 01:00:33;;;;;;;;;;;20.80;63.80;;;;;;4992332;28;1902;-65
2021/11/21 01:02:58;;;;;;;;;;;20.80;63.80;;;;;;4990533;28;1648;-65
2021/11/21 01:05:24;;;;;;;;;;;20.80;63.90;;;;;;4992286;28;1285;-66
2021/11/21 01:07:49;;;;;;;;;;;20.80;63.90;;;;;;4991113;28;1752;-66
2021/11/21 01:10:16;;;;;;;;;;;20.80;63.90;;;;;;4992469;28;1574;-65
2021/11/21 01:12:41;;;;;;;;;;;20.80;64.00;;;;;;4992412;28;1647;-65
2021/11/21 01:15:07;;;;;;;;;;;20.80;64.00;;;;;;4992438;28;1420;-65
2021/11/21 01:17:33;;;;;;;;;;;20.80;64.00;;;;;;4992277;28;1659;-65
2021/11/21 01:20:02;;;;;;;;;;;20.80;64.00;;;;;;4992321;28;1890;-65
2021/11/21 01:22:28;;;;;;;;;;;20.80;64.00;;;;;;5001538;28;1659;-65
2021/11/21 01:24:54;;;;;;;;;;;20.80;64.10;;;;;;4991474;28;1499;-65
2021/11/21 01:27:19;;;;;;;;;;;20.80;64.10;;;;;;4992743;28;1132;-65
2021/11/21 01:29:45;;;;;;;;;;;20.80;64.10;;;;;;4992270;28;1438;-66
2021/11/21 01:32:10;;;;;;;;;;;20.70;64.00;;;;;;4990259;28;1407;-66
2021/11/21 01:34:36;;;;;;;;;;;20.80;64.10;;;;;;4991983;28;1676;-66
2021/11/21 01:37:01;;;;;;;;;;;20.70;64.10;;;;;;4991726;28;1572;-65
2021/11/21 01:39:27;;;;;;;;;;;20.70;64.10;;;;;;4992320;28;1885;-65
2021/11/21 01:41:52;;;;;;;;;;;20.70;64.10;;;;;;4991419;28;1974;-65
2021/11/21 01:44:18;;;;;;;;;;;20.70;64.10;;;;;;4991780;28;1647;-65
2021/11/21 01:46:44;;;;;;;;;;;20.70;64.10;;;;;;4991974;28;1287;-65
2021/11/21 01:49:10;;;;;;;;;;;20.70;64.10;;;;;;4992148;28;1192;-65
2021/11/21 01:51:35;;;;;;;;;;;20.70;64.10;;;;;;4991357;28;1643;-65
2021/11/21 01:54:01;;;;;;;;;;;20.70;64.20;;;;;;4992070;28;1417;-65
2021/11/21 01:56:27;;;;;;;;;;;20.70;64.20;;;;;;4992302;28;1603;-65
2021/11/21 01:58:53;;;;;;;;;;;20.70;64.20;;;;;;4992206;28;1595;-65
2021/11/21 02:01:18;;;;;;;;;;;20.70;64.20;;;;;;4991217;28;1910;-66
2021/11/21 02:03:44;;;;;;;;;;;20.70;64.20;;;;;;4991627;28;1661;-66
2021/11/21 02:06:09;;;;;;;;;;;20.70;64.30;;;;;;4991577;28;1601;-66
2021/11/21 02:08:35;;;;;;;;;;;20.70;64.30;;;;;;4990830;28;1386;-66
2021/11/21 02:11:01;;;;;;;;;;;20.70;64.30;;;;;;4991066;28;1377;-67
2021/11/21 02:13:26;;;;;;;;;;;20.70;64.30;;;;;;4991447;28;1527;-66
2021/11/21 02:15:51;;;;;;;;;;;20.70;64.30;;;;;;4992011;28;1582;-66
2021/11/21 02:18:17;;;;;;;;;;;20.70;64.30;;;;;;4992067;28;1652;-66
2021/11/21 02:20:43;;;;;;;;;;;20.70;64.30;;;;;;4998469;28;1894;-66
2021/11/21 02:23:09;;;;;;;;;;;20.70;64.40;;;;;;4994278;28;1615;-66
2021/11/21 02:25:34;;;;;;;;;;;20.60;64.30;;;;;;4993622;28;1643;-66
2021/11/21 02:28:00;;;;;;;;;;;20.70;64.40;;;;;;4995427;28;1429;-66
2021/11/21 02:30:25;;;;;;;;;;;20.70;64.40;;;;;;4994069;28;1349;-66
2021/11/21 02:32:51;;;;;;;;;;;20.70;64.40;;;;;;4994287;28;1338;-66
2021/11/21 02:35:17;;;;;;;;;;;20.70;64.40;;;;;;4993760;28;1694;-66
2021/11/21 02:37:43;;;;;;;;;;;20.70;64.40;;;;;;4995375;28;1711;-67
2021/11/21 02:40:09;;;;;;;;;;;20.60;64.30;;;;;;4993858;28;1899;-66
2021/11/21 02:42:34;;;;;;;;;;;20.70;64.40;;;;;;4994554;28;1409;-66
2021/11/21 02:45:00;;;;;;;;;;;20.70;64.30;;;;;;5010081;28;1687;-65
2021/11/21 02:47:32;;;;;;;;;;;20.70;64.20;;;;;;4994345;28;1477;-66
2021/11/21 02:49:58;;;;;;;;;;;20.70;64.20;;;;;;4995265;28;1692;-66
2021/11/21 02:52:23;;;;;;;;;;;20.70;64.10;;;;;;4993639;28;1570;-66
2021/11/21 02:54:50;;;;;;;;;;;20.70;64.80;;;;;;4993729;28;1590;-66
2021/11/21 02:57:15;;;;;;;;;;;20.80;64.00;;;;;;4994806;28;1440;-66
2021/11/21 02:59:40;;;;;;;;;;;20.80;63.80;;;;;;4994477;28;1701;-65
2021/11/21 03:02:06;;;;;;;;;;;20.80;63.70;;;;;;4993618;28;1922;-65
2021/11/21 03:04:31;;;;;;;;;;;20.90;63.70;;;;;;4994960;28;1596;-65
2021/11/21 03:06:57;;;;;;;;;;;20.90;63.60;;;;;;4994638;28;1598;-65
2021/11/21 03:09:22;;;;;;;;;;;20.90;63.50;;;;;;4993965;28;1444;-65
2021/11/21 03:11:48;;;;;;;;;;;21.00;63.50;;;;;;4993164;28;1293;-66
2021/11/21 03:14:14;;;;;;;;;;;20.90;63.30;;;;;;4993734;28;1382;-66
2021/11/21 03:16:39;;;;;;;;;;;21.00;63.30;;;;;;4993960;28;1329;-66
2021/11/21 03:19:04;;;;;;;;;;;21.00;63.20;;;;;;4993569;28;1256;-66
2021/11/21 03:21:30;;;;;;;;;;;21.00;63.20;;;;;;5005141;28;1915;-66
2021/11/21 03:23:55;;;;;;;;;;;21.00;63.10;;;;;;4995211;28;1318;-66
2021/11/21 03:26:21;;;;;;;;;;;21.00;63.10;;;;;;4994425;28;1038;-65
2021/11/21 03:28:47;;;;;;;;;;;21.00;63.00;;;;;;4994693;28;1277;-65
2021/11/21 03:31:12;;;;;;;;;;;21.00;63.00;;;;;;4994147;28;1363;-65
2021/11/21 03:33:39;;;;;;;;;;;21.10;63.00;;;;;;4993687;28;1428;-66
2021/11/21 03:36:04;;;;;;;;;;;21.10;63.00;;;;;;4992589;28;1360;-66
2021/11/21 03:38:30;;;;;;;;;;;21.10;62.90;;;;;;4994249;28;1144;-66
2021/11/21 03:40:55;;;;;;;;;;;21.10;62.90;;;;;;4994217;28;1951;-65
2021/11/21 03:43:21;;;;;;;;;;;21.10;62.90;;;;;;4994648;28;1411;-66
2021/11/21 03:45:46;;;;;;;;;;;21.10;62.80;;;;;;4994710;28;1462;-66
2021/11/21 03:48:12;;;;;;;;;;;21.10;62.80;;;;;;4994499;28;1084;-66
2021/11/21 03:50:37;;;;;;;;;;;21.10;62.90;;;;;;4994117;28;1303;-65
2021/11/21 03:53:03;;;;;;;;;;;21.10;62.80;;;;;;4993942;28;1277;-66
2021/11/21 03:55:28;;;;;;;;;;;21.10;62.80;;;;;;4994891;28;1302;-66
2021/11/21 03:57:53;;;;;;;;;;;21.10;62.80;;;;;;4993277;28;1295;-66
2021/11/21 04:00:20;;;;;;;;;;;21.10;62.80;;;;;;4994093;28;1902;-66
2021/11/21 04:02:46;;;;;;;;;;;21.10;62.70;;;;;;4993849;28;1316;-65
2021/11/21 04:05:11;;;;;;;;;;;21.10;62.80;;;;;;4994192;28;1268;-66
2021/11/21 04:07:37;;;;;;;;;;;21.10;62.70;;;;;;4993867;28;1252;-67
2021/11/21 04:10:03;;;;;;;;;;;21.10;62.70;;;;;;4994309;28;1301;-66
2021/11/21 04:12:28;;;;;;;;;;;21.10;62.70;;;;;;4993915;28;1383;-66
2021/11/21 04:14:54;;;;;;;;;;;21.10;62.70;;;;;;4994253;28;1072;-65
2021/11/21 04:17:20;;;;;;;;;;;21.10;62.60;;;;;;4994221;28;1346;-67
2021/11/21 04:19:45;;;;;;;;;;;21.10;62.60;;;;;;4994035;28;1103;-65
2021/11/21 04:22:10;;;;;;;;;;;21.10;62.60;;;;;;5003839;28;1948;-65
2021/11/21 04:24:36;;;;;;;;;;;21.10;62.60;;;;;;4993987;28;1285;-66
2021/11/21 04:27:02;;;;;;;;;;;21.10;62.60;;;;;;4994155;28;1092;-65
2021/11/21 04:29:27;;;;;;;;;;;21.20;62.70;;;;;;4993661;28;1068;-66
2021/11/21 04:31:54;;;;;;;;;;;21.20;62.60;;;;;;4992928;28;1068;-66
2021/11/21 04:34:19;;;;;;;;;;;21.20;62.60;;;;;;5003710;23;3759;-72
2021/11/21 04:36:45;;;;;;;;;;;21.20;62.70;;;;;;4993556;28;922;-72
2021/11/21 04:39:10;;;;;;;;;;;21.10;62.50;;;;;;5007719;28;1072;-72
2021/11/21 04:41:36;;;;;;;;;;;21.20;62.50;;;;;;4997144;28;1964;-72
2021/11/21 04:44:02;;;;;;;;;;;21.20;62.60;;;;;;4985664;28;1285;-73
2021/11/21 04:46:28;;;;;;;;;;;21.20;62.50;;;;;;4973866;28;1116;-72
2021/11/21 04:48:53;;;;;;;;;;;21.20;62.60;;;;;;4973030;28;1128;-72
2021/11/21 04:51:19;;;;;;;;;;;21.20;62.60;;;;;;4971919;28;1137;-73
2021/11/21 04:53:44;;;;;;;;;;;21.20;62.50;;;;;;4973928;28;1345;-73
2021/11/21 04:56:10;;;;;;;;;;;21.20;62.50;;;;;;4973979;28;1104;-73
2021/11/21 04:58:35;;;;;;;;;;;21.20;62.50;;;;;;4974178;28;1280;-72
2021/11/21 05:01:01;;;;;;;;;;;21.20;62.50;;;;;;4971371;28;1972;-71
2021/11/21 05:03:27;;;;;;;;;;;21.20;62.50;;;;;;4972430;28;1366;-72
2021/11/21 05:05:52;;;;;;;;;;;21.20;62.50;;;;;;4956649;28;1240;-72
2021/11/21 05:08:17;;;;;;;;;;;21.20;62.50;;;;;;4974370;28;1111;-73
2021/11/21 05:10:43;;;;;;;;;;;21.20;62.50;;;;;;4973556;28;1136;-72
2021/11/21 05:13:09;;;;;;;;;;;21.20;62.50;;;;;;4973848;28;1256;-73
2021/11/21 05:15:34;;;;;;;;;;;21.20;62.50;;;;;;4972636;28;1318;-72
2021/11/21 05:18:00;;;;;;;;;;;21.20;63.30;;;;;;4973065;28;1381;-72
2021/11/21 05:20:26;;;;;;;;;;;21.20;62.50;;;;;;4977478;28;1948;-71
2021/11/21 05:22:51;;;;;;;;;;;21.20;62.50;;;;;;4964762;28;1075;-72
2021/11/21 05:25:17;;;;;;;;;;;21.20;62.50;;;;;;4952879;28;1295;-71
2021/11/21 05:27:46;;;;;;;;;;;21.20;62.50;;;;;;4953787;28;1148;-72
2021/11/21 05:30:13;;;;;;;;;;;21.20;62.50;;;;;;4954294;29;1339;-72
2021/11/21 05:32:39;;;;;;;;;;;21.20;62.50;;;;;;4953648;29;1116;-73
2021/11/21 05:35:04;;;;;;;;;;;21.20;62.40;;;;;;4953929;29;1189;-73
2021/11/21 05:37:30;;;;;;;;;;;21.20;62.50;;;;;;4966066;28;1374;-72
2021/11/21 05:39:55;;;;;;;;;;;21.20;62.40;;;;;;4954506;28;1974;-72
2021/11/21 05:42:21;;;;;;;;;;;21.20;62.40;;;;;;4966627;28;1343;-72
2021/11/21 05:44:46;;;;;;;;;;;21.20;62.50;;;;;;4953012;28;1391;-72
2021/11/21 05:47:12;;;;;;;;;;;21.20;62.50;;;;;;4967793;28;1057;-72
2021/11/21 05:49:37;;;;;;;;;;;21.20;62.50;;;;;;4966731;28;1273;-73
2021/11/21 05:52:03;;;;;;;;;;;21.20;62.50;;;;;;4952303;28;1086;-73
2021/11/21 05:54:28;;;;;;;;;;;21.10;62.40;;;;;;4966556;28;1292;-73
2021/11/21 05:56:54;;;;;;;;;;;21.20;62.50;;;;;;4952686;28;1302;-73
2021/11/21 05:59:19;;;;;;;;;;;21.20;62.50;;;;;;4954427;28;1077;-73
2021/11/21 06:01:45;;;;;;;;;;;21.20;62.50;;;;;;4968754;28;1960;-73
2021/11/21 06:04:10;;;;;;;;;;;21.20;62.50;;;;;;4958315;29;1337;-73
2021/11/21 06:06:36;;;;;;;;;;;21.20;62.50;;;;;;4970278;28;998;-73
2021/11/21 06:09:02;;;;;;;;;;;21.20;62.50;;;;;;4963198;28;1094;-73
2021/11/21 06:11:27;;;;;;;;;;;21.20;62.50;;;;;;4963186;28;1060;-72
2021/11/21 06:13:53;;;;;;;;;;;21.10;62.40;;;;;;4956270;29;1460;-72
2021/11/21 06:16:18;;;;;;;;;;;21.20;62.50;;;;;;4957548;28;1294;-72
2021/11/21 06:18:44;;;;;;;;;;;21.20;62.50;;;;;;4957615;28;1147;-73
2021/11/21 06:21:09;;;;;;;;;;;21.20;62.50;;;;;;4977946;28;1902;-72
2021/11/21 06:23:35;;;;;;;;;;;21.20;62.50;;;;;;4971901;28;1265;-72
2021/11/21 06:26:02;;;;;;;;;;;21.20;62.50;;;;;;4957964;28;990;-72
2021/11/21 06:28:27;;;;;;;;;;;21.20;62.50;;;;;;4957823;28;1317;-72
2021/11/21 06:30:53;;;;;;;;;;;21.10;62.50;;;;;;4956990;28;1144;-73
2021/11/21 06:33:18;;;;;;;;;;;21.20;62.50;;;;;;4957264;28;1451;-72
2021/11/21 06:35:44;;;;;;;;;;;21.20;62.50;;;;;;4970349;28;1073;-72
2021/11/21 06:38:09;;;;;;;;;;;21.20;62.50;;;;;;4963672;28;1342;-72
2021/11/21 06:40:35;;;;;;;;;;;21.20;62.50;;;;;;4962162;28;1948;-73
2021/11/21 06:43:00;;;;;;;;;;;21.20;62.50;;;;;;4975348;28;1232;-72
2021/11/21 06:45:26;;;;;;;;;;;21.10;62.40;;;;;;4975303;28;1248;-71
2021/11/21 06:47:51;;;;;;;;;;;21.20;62.50;;;;;;4976457;28;1072;-71
2021/11/21 06:50:17;;;;;;;;;;;21.20;62.50;;;;;;4976661;28;1275;-72
2021/11/21 06:52:43;;;;;;;;;;;21.20;62.50;;;;;;4975981;28;1310;-71
2021/11/21 06:55:09;;;;;;;;;;;21.20;62.50;;;;;;4969558;28;1981;-71
2021/11/21 06:57:35;;;;;;;;;;;21.20;62.50;;;;;;4965950;28;1400;-69
2021/11/21 07:00:00;;;;;;;;;;;21.20;62.50;;;;;;4967539;28;1987;-71
2021/11/21 07:02:26;;;;;;;;;;;21.20;62.50;;;;;;4965442;28;1376;-71
2021/11/21 07:04:51;;;;;;;;;;;21.20;62.50;;;;;;4971999;28;1339;-69
2021/11/21 07:07:17;;;;;;;;;;;21.20;62.50;;;;;;4957387;28;1466;-69
2021/11/21 07:09:44;;;;;;;;;;;21.20;62.50;;;;;;4955582;28;1245;-69
2021/11/21 07:12:10;;;;;;;;;;;21.20;62.50;;;;;;4953241;29;1327;-69
2021/11/21 07:14:35;;;;;;;;;;;21.20;62.50;;;;;;4955165;29;1355;-71
2021/11/21 07:17:01;;;;;;;;;;;21.20;62.50;;;;;;4955158;28;1401;-71
2021/11/21 07:19:26;;;;;;;;;;;21.10;62.50;;;;;;4964434;28;1257;-70
2021/11/21 07:21:52;;;;;;;;;;;21.20;62.40;;;;;;4979663;28;1962;-71
2021/11/21 07:24:18;;;;;;;;;;;21.20;62.50;;;;;;4955255;29;1370;-71
2021/11/21 07:26:43;;;;;;;;;;;21.20;62.50;;;;;;4959677;28;1256;-70
2021/11/21 07:29:09;;;;;;;;;;;21.20;62.50;;;;;;4954772;28;1512;-71
2021/11/21 07:31:35;;;;;;;;;;;21.20;62.40;;;;;;4960892;28;1902;-69
2021/11/21 07:34:01;;;;;;;;;;;21.20;62.50;;;;;;4968462;28;1296;-72
2021/11/21 07:36:26;;;;;;;;;;;21.20;62.40;;;;;;4957812;28;955;-72
2021/11/21 07:38:52;;;;;;;;;;;21.20;62.40;;;;;;4955393;28;1124;-71
2021/11/21 07:41:17;;;;;;;;;;;21.20;62.40;;;;;;4969814;28;1910;-72
2021/11/21 07:43:43;;;;;;;;;;;21.30;62.30;;;;;;4962501;28;1278;-72
2021/11/21 07:46:08;;;;;;;;;;;21.40;62.20;;;;;;4972042;28;1337;-71
2021/11/21 07:48:34;;;;;;;;;;;21.50;62.00;;;;;;4969061;28;1148;-70
2021/11/21 07:51:00;;;;;;;;;;;21.60;61.80;;;;;;4966346;28;1362;-70
2021/11/21 07:53:26;;;;;;;;;;;21.60;61.60;;;;;;4960919;28;1314;-70
2021/11/21 07:55:52;;;;;;;;;;;21.80;61.40;;;;;;4952927;28;1169;-70
2021/11/21 07:58:18;;;;;;;;;;;21.80;61.00;;;;;;4955768;29;1261;-71
2021/11/21 08:00:43;;;;;;;;;;;21.90;60.70;;;;;;4954805;29;1903;-70
2021/11/21 08:03:08;;;;;;;;;;;22.00;60.40;;;;;;4967317;28;1303;-71
2021/11/21 08:05:34;;;;;;;;;;;22.10;60.20;;;;;;4974974;28;1191;-70
2021/11/21 08:08:00;;;;;;;;;;;22.20;60.00;;;;;;4974832;28;1260;-71
2021/11/21 08:10:25;;;;;;;;;;;22.20;59.80;;;;;;4973256;28;1465;-70
2021/11/21 08:12:50;;;;;;;;;;;22.30;59.70;;;;;;4974090;28;1274;-70
2021/11/21 08:15:16;;;;;;;;;;;22.30;59.50;;;;;;4974648;28;1378;-70
2021/11/21 08:17:41;;;;;;;;;;;22.40;59.50;;;;;;4974485;28;1316;-71
2021/11/21 08:20:07;;;;;;;;;;;22.40;59.40;;;;;;4976864;28;2025;-71
2021/11/21 08:22:33;;;;;;;;;;;22.40;59.30;;;;;;4967233;28;1269;-71
2021/11/21 08:24:58;;;;;;;;;;;22.40;59.30;;;;;;4973695;28;1346;-70
2021/11/21 08:27:24;;;;;;;;;;;22.50;59.30;;;;;;4985505;28;1290;-71
2021/11/21 08:29:50;;;;;;;;;;;22.50;59.30;;;;;;4957968;28;1375;-71
2021/11/21 08:32:16;;;;;;;;;;;22.50;59.30;;;;;;4965145;28;1173;-70
2021/11/21 08:34:41;;;;;;;;;;;22.50;59.20;;;;;;4968815;28;1264;-70
2021/11/21 08:37:07;;;;;;;;;;;22.50;59.20;;;;;;4955042;28;1363;-71
2021/11/21 08:39:33;;;;;;;;;;;22.50;59.20;;;;;;4953573;28;1278;-71
2021/11/21 08:41:58;;;;;;;;;;;22.50;59.20;;;;;;4964376;28;1935;-70
2021/11/21 08:44:24;;;;;;;;;;;22.50;59.10;;;;;;4974139;28;1400;-70
2021/11/21 08:46:49;;;;;;;;;;;22.50;59.10;;;;;;4974025;28;1325;-71
2021/11/21 08:49:15;;;;;;;;;;;22.50;59.10;;;;;;4972984;28;1163;-70
2021/11/21 08:51:43;;;;;;;;;;;22.50;59.10;;;;;;4972111;28;1349;-70
2021/11/21 08:54:08;;;;;;;;;;;22.50;59.20;;;;;;4973851;28;1279;-70
2021/11/21 08:56:34;;;;;;;;;;;22.50;59.20;;;;;;4974046;28;1057;-71
2021/11/21 08:58:59;;;;;;;;;;;22.50;59.20;;;;;;4972680;28;1349;-70
2021/11/21 09:01:24;;;;;;;;;;;22.50;59.30;;;;;;4973276;28;1938;-70
2021/11/21 09:03:50;;;;;;;;;;;22.40;59.30;;;;;;4973746;28;1473;-71
2021/11/21 09:06:15;;;;;;;;;;;22.40;59.30;;;;;;4973775;28;1033;-71
2021/11/21 09:08:41;;;;;;;;;;;22.40;59.40;;;;;;4973642;28;1374;-69
2021/11/21 09:11:06;;;;;;;;;;;22.40;60.00;;;;;;4973145;28;1340;-70
2021/11/21 09:13:32;;;;;;;;;;;22.40;59.40;;;;;;4974088;28;1284;-71
2021/11/21 09:15:58;;;;;;;;;;;22.40;59.50;;;;;;4972098;28;1308;-71
2021/11/21 09:18:25;;;;;;;;;;;22.40;59.50;;;;;;4974193;28;1323;-71
2021/11/21 09:20:53;;;;;;;;;;;22.40;59.50;;;;;;4981246;28;1957;-71
2021/11/21 09:23:19;;;;;;;;;;;22.30;59.50;;;;;;4959307;28;1297;-71
2021/11/21 09:25:45;;;;;;;;;;;22.40;59.60;;;;;;4953919;29;1372;-70
2021/11/21 09:28:10;;;;;;;;;;;22.30;59.60;;;;;;4954567;28;1196;-70
2021/11/21 09:30:36;;;;;;;;;;;22.30;59.60;;;;;;4954219;29;1273;-70
2021/11/21 09:33:01;;;;;;;;;;;22.30;59.70;;;;;;4954735;28;1351;-71
2021/11/21 09:35:26;;;;;;;;;;;22.30;59.70;;;;;;4958188;29;1279;-71
2021/11/21 09:37:52;;;;;;;;;;;22.30;59.70;;;;;;4957955;29;1267;-70
2021/11/21 09:40:17;;;;;;;;;;;22.30;59.80;;;;;;4956512;29;1910;-70
2021/11/21 09:42:43;;;;;;;;;;;22.20;59.80;;;;;;4974082;28;1246;-70
2021/11/21 09:45:09;;;;;;;;;;;22.20;59.80;;;;;;4977359;28;1311;-70
2021/11/21 09:47:34;;;;;;;;;;;22.20;59.80;;;;;;4976747;28;1367;-70
2021/11/21 09:50:07;;;;;;;;;;;22.20;59.90;;;;;;4977236;28;1324;-70
2021/11/21 09:52:33;;;;;;;;;;;22.20;59.90;;;;;;4975161;28;1325;-70
2021/11/21 09:54:59;;;;;;;;;;;22.20;60.00;;;;;;4992529;28;1337;-70
2021/11/21 09:57:24;;;;;;;;;;;22.20;60.00;;;;;;4975845;28;1109;-70
2021/11/21 09:59:53;;;;;;;;;;;22.20;60.00;;;;;;4977279;28;1053;-71
2021/11/21 10:02:30;;;;;;;;;;;22.20;60.00;;;;;;4991229;28;1960;-70
2021/11/21 10:04:56;;;;;;;;;;;22.20;60.00;;;;;;4976825;28;1344;-71
2021/11/21 10:07:23;;;;;;;;;;;22.20;60.10;;;;;;4976790;28;1284;-71
2021/11/21 10:09:48;;;;;;;;;;;22.20;60.10;;;;;;4975790;28;1271;-70
2021/11/21 10:12:14;;;;;;;;;;;22.20;60.20;;;;;;4975202;28;1433;-71
2021/11/21 10:14:54;;;;;;;;;;;22.20;60.10;;;;;;4976888;28;1380;-70
2021/11/21 10:17:20;;;;;;;;;;;22.20;60.20;;;;;;4972253;28;2137;-70
2021/11/21 10:20:21;;;;;;;;;;;22.10;60.20;;;;;;4970013;28;1124;-71
2021/11/21 10:22:52;;;;;;;;;;;22.10;60.20;;;;;;4903735;29;1733;-72
2021/11/21 10:25:37;;;;;;;;;;;22.10;60.10;;;;;;4947419;29;1219;-72
2021/11/21 10:28:11;;;;;;;;;;;22.20;60.10;;;;;;4956963;28;1172;-72
2021/11/21 10:30:57;;;;;;;;;;;22.20;60.10;;;;;;4957828;28;1135;-72
2021/11/21 10:33:23;;;;;;;;;;;22.20;60.00;;;;;;4963495;28;1367;-71
2021/11/21 10:36:08;;;;;;;;;;;22.20;60.00;;;;;;4977311;28;1316;-70
2021/11/21 10:39:09;;;;;;;;;;;22.30;60.00;;;;;;4975422;28;1346;-70
2021/11/21 10:41:38;;;;;;;;;;;22.30;59.90;;;;;;4923283;29;1906;-70
2021/11/21 10:44:07;;;;;;;;;;;22.30;59.80;;;;;;4966236;28;1336;-70
2021/11/21 10:46:45;;;;;;;;;;;22.40;59.80;;;;;;4967647;28;1744;-71
2021/11/21 10:49:13;;;;;;;;;;;22.40;59.70;;;;;;4965959;28;1305;-71
2021/11/21 10:51:39;;;;;;;;;;;22.40;59.60;;;;;;4970386;28;1113;-72
2021/11/21 10:54:15;;;;;;;;;;;22.50;59.60;;;;;;4971501;28;1198;-71
2021/11/21 10:56:48;;;;;;;;;;;22.50;59.50;;;;;;4955032;29;1273;-71
2021/11/21 10:59:13;;;;;;;;;;;22.50;59.50;;;;;;4959899;28;1309;-71
2021/11/21 11:01:39;;;;;;;;;;;22.40;59.50;;;;;;4962467;28;1958;-72
2021/11/21 11:04:08;;;;;;;;;;;22.50;59.40;;;;;;4955077;28;1313;-71
2021/11/21 11:06:34;;;;;;;;;;;22.50;59.40;;;;;;4968124;28;891;-71
2021/11/21 11:09:19;;;;;;;;;;;22.40;59.50;;;;;;4973720;28;1218;-71
2021/11/21 11:11:45;;;;;;;;;;;22.50;59.50;;;;;;4975539;28;1322;-71
2021/11/21 11:14:13;;;;;;;;;;;22.50;59.50;;;;;;4974753;28;1293;-71
2021/11/21 11:16:39;;;;;;;;;;;22.50;59.50;;;;;;4976308;28;1239;-71
2021/11/21 11:19:04;;;;;;;;;;;22.50;59.50;;;;;;4967222;28;1040;-70
2021/11/21 11:21:30;;;;;;;;;;;22.40;59.50;;;;;;4995949;28;1955;-72
2021/11/21 11:23:55;;;;;;;;;;;22.40;59.50;;;;;;4966147;28;1321;-71
2021/11/21 11:26:21;;;;;;;;;;;22.40;59.60;;;;;;4956701;28;1355;-71
2021/11/21 11:28:47;;;;;;;;;;;22.40;59.60;;;;;;4963436;28;1139;-71
2021/11/21 11:31:32;;;;;;;;;;;22.40;59.60;;;;;;4963361;28;1960;-71
2021/11/21 11:33:59;;;;;;;;;;;22.40;59.60;;;;;;4972222;28;1372;-71
2021/11/21 11:36:25;;;;;;;;;;;22.40;59.70;;;;;;4969373;28;1307;-73
2021/11/21 11:39:13;;;;;;;;;;;22.40;59.70;;;;;;4965308;28;1149;-71
2021/11/21 11:41:38;;;;;;;;;;;22.30;59.70;;;;;;4963134;28;1912;-71
2021/11/21 11:44:06;;;;;;;;;;;22.30;59.70;;;;;;4958230;28;1686;-71
2021/11/21 11:46:35;;;;;;;;;;;22.30;59.80;;;;;;4967436;28;1120;-71
2021/11/21 11:49:00;;;;;;;;;;;22.30;59.80;;;;;;4970630;28;1301;-70
2021/11/21 11:51:29;;;;;;;;;;;22.30;59.80;;;;;;4973985;28;1338;-70
2021/11/21 11:54:02;;;;;;;;;;;22.30;59.80;;;;;;4975211;28;1503;-70
2021/11/21 11:56:29;;;;;;;;;;;22.30;59.90;;;;;;4974399;28;1327;-69
2021/11/21 11:58:55;;;;;;;;;;;22.30;59.90;;;;;;4973758;28;1360;-70
2021/11/21 12:01:49;;;;;;;;;;;22.30;59.90;;;;;;4967157;28;2048;-69
2021/11/21 12:04:15;;;;;;;;;;;22.30;59.90;;;;;;4967817;28;1340;-70
2021/11/21 12:06:50;;;;;;;;;;;22.30;60.00;;;;;;4974525;28;1143;-70
2021/11/21 12:09:15;;;;;;;;;;;22.30;59.90;;;;;;4969093;28;1879;-70
2021/11/21 12:11:50;;;;;;;;;;;22.30;59.90;;;;;;4965742;28;1128;-69
2021/11/21 12:14:30;;;;;;;;;;;22.30;59.80;;;;;;4955410;29;1254;-70
2021/11/21 12:17:02;;;;;;;;;;;22.40;59.90;;;;;;4955354;28;1348;-71
2021/11/21 12:19:47;;;;;;;;;;;22.40;59.80;;;;;;4954370;29;1278;-72
2021/11/21 12:22:21;;;;;;;;;;;22.40;59.80;;;;;;4975511;28;1946;-70
2021/11/21 12:24:47;;;;;;;;;;;22.40;59.70;;;;;;4954748;29;1273;-69
2021/11/21 12:27:16;;;;;;;;;;;22.40;59.70;;;;;;4955789;28;1199;-71
2021/11/21 12:29:44;;;;;;;;;;;22.40;59.60;;;;;;4954572;28;1070;-70
2021/11/21 12:32:19;;;;;;;;;;;22.40;59.60;;;;;;4955287;29;1345;-70
2021/11/21 12:34:45;;;;;;;;;;;22.50;59.60;;;;;;4954680;29;1248;-70
2021/11/21 12:37:26;;;;;;;;;;;22.50;59.60;;;;;;4954858;29;1272;-70
2021/11/21 12:39:54;;;;;;;;;;;22.50;59.60;;;;;;4968023;28;973;-70
2021/11/21 12:42:23;;;;;;;;;;;22.50;59.60;;;;;;4967866;28;1966;-70
2021/11/21 12:44:49;;;;;;;;;;;22.50;59.60;;;;;;4973044;28;1236;-71
2021/11/21 12:47:14;;;;;;;;;;;22.50;59.70;;;;;;4972973;28;1065;-70
2021/11/21 12:49:41;;;;;;;;;;;22.40;59.60;;;;;;4972928;28;1316;-70
2021/11/21 12:52:08;;;;;;;;;;;22.50;59.70;;;;;;4972488;28;1405;-70
2021/11/21 12:54:33;;;;;;;;;;;22.50;59.70;;;;;;4972799;28;1194;-70
2021/11/21 12:56:59;;;;;;;;;;;22.40;59.70;;;;;;4974253;28;1112;-70
2021/11/21 12:59:43;;;;;;;;;;;22.40;59.70;;;;;;4973069;28;1066;-70
2021/11/21 13:02:11;;;;;;;;;;;22.40;59.80;;;;;;4972871;28;3366;-70
2021/11/21 13:05:06;;;;;;;;;;;22.40;59.80;;;;;;4967298;28;1853;-70
2021/11/21 13:07:32;;;;;;;;;;;22.40;59.80;;;;;;4957850;28;1844;-73
2021/11/21 13:09:58;;;;;;;;;;;22.40;59.90;;;;;;4954428;28;1291;-72
2021/11/21 13:12:25;;;;;;;;;;;22.40;59.90;;;;;;4968456;28;1209;-73
2021/11/21 13:14:57;;;;;;;;;;;22.30;59.90;;;;;;4965295;28;1279;-69
2021/11/21 13:17:22;;;;;;;;;;;22.30;59.90;;;;;;4969410;28;1079;-70
2021/11/21 13:20:04;;;;;;;;;;;22.30;60.00;;;;;;4959366;28;1088;-69
2021/11/21 13:22:48;;;;;;;;;;;22.30;60.00;;;;;;4953766;29;1969;-69
2021/11/21 13:25:32;;;;;;;;;;;22.30;60.00;;;;;;4953888;28;1293;-69
2021/11/21 13:28:16;;;;;;;;;;;22.30;60.10;;;;;;4969523;28;1101;-71
2021/11/21 13:30:42;;;;;;;;;;;22.30;60.10;;;;;;4961835;28;2203;-70
2021/11/21 13:33:15;;;;;;;;;;;22.30;60.20;;;;;;4984127;28;1322;-70
2021/11/21 13:35:41;;;;;;;;;;;22.30;60.20;;;;;;4969619;28;1250;-69
2021/11/21 13:38:06;;;;;;;;;;;22.20;60.20;;;;;;4954084;28;1394;-70
2021/11/21 13:40:32;;;;;;;;;;;22.20;60.20;;;;;;4947755;28;1966;-70
2021/11/21 13:43:04;;;;;;;;;;;22.20;60.30;;;;;;4969220;28;1707;-71
2021/11/21 13:45:29;;;;;;;;;;;22.20;60.30;;;;;;4974240;28;1756;-71
2021/11/21 13:47:55;;;;;;;;;;;22.20;60.30;;;;;;4973032;28;1226;-72
2021/11/21 13:50:30;;;;;;;;;;;22.20;60.30;;;;;;4962737;28;1416;-71
2021/11/21 13:52:56;;;;;;;;;;;22.20;60.40;;;;;;4954241;28;1073;-71
2021/11/21 13:55:24;;;;;;;;;;;22.20;60.40;;;;;;4954618;28;1201;-70
2021/11/21 13:57:49;;;;;;;;;;;22.20;60.40;;;;;;4953033;28;1338;-70
2021/11/21 14:00:19;;;;;;;;;;;22.20;60.40;;;;;;4984578;28;1899;-70
2021/11/21 14:02:46;;;;;;;;;;;22.20;60.50;;;;;;4968593;28;1472;-70
2021/11/21 14:05:14;;;;;;;;;;;22.10;60.40;;;;;;4958112;28;1336;-69
2021/11/21 14:08:02;;;;;;;;;;;22.10;60.50;;;;;;4973058;28;1291;-69
2021/11/21 14:10:30;;;;;;;;;;;22.10;60.50;;;;;;4958963;28;1113;-73
2021/11/21 14:13:05;;;;;;;;;;;22.10;60.50;;;;;;4960455;28;1131;-72
2021/11/21 14:15:31;;;;;;;;;;;22.10;60.60;;;;;;4973006;28;1249;-72
2021/11/21 14:17:59;;;;;;;;;;;22.10;60.60;;;;;;4959321;28;1582;-74
2021/11/21 14:20:28;;;;;;;;;;;22.10;60.60;;;;;;4975868;28;1906;-73
2021/11/21 14:23:00;;;;;;;;;;;22.10;60.60;;;;;;4967804;28;1100;-73
2021/11/21 14:25:29;;;;;;;;;;;22.10;60.70;;;;;;4967375;28;1206;-72
2021/11/21 14:28:01;;;;;;;;;;;22.10;60.70;;;;;;4985910;28;1060;-72
2021/11/21 14:30:27;;;;;;;;;;;22.10;60.70;;;;;;4965645;28;1109;-73
2021/11/21 14:32:57;;;;;;;;;;;22.00;60.70;;;;;;4971858;28;1264;-72